• Join FlightAware (Why Join?)
  • Login
  • US Flag 
04:34PM EDT


 

Airport Tracker/Info


-or-


 

Live Flight TrackerFlight Track Log ✈ SWA2279 ✈ 01-Mar-2014 ✈ KMDW - KRSW

Flight Track Log - Related Links

Times and Time Zones

All times are in EST time to prevent confusion due to time zone crossing. See the SWA2279 flight status page for this flight to view local times or setup timezone preferences in your user account.

Time Position Orientation Groundspeed Altitude Reporting Facility
EST Latitude Longitude Course Direction KTS MPH feet Rate Location/Type
07:06PM 41.8133 -87.7594 136° Southeast 164 189 2,000  Level Chicago Center
07:07PM 41.7778 -87.7128 136° Southeast 230 265 5,100 3,060 Climbing Chicago Center
07:08PM 41.7139 -87.7406 198° South 240 276 8,300 2,880 Climbing Chicago Center
07:09PM 41.6539 -87.7681 199° South 247 284 11,100 2,280 Climbing Chicago Center
07:10PM 41.5642 -87.7672 180° South 329 379 13,000 2,340 Climbing Chicago Center
07:11PM 41.4689 -87.7467 171° South 347 399 16,000 2,460 Climbing Chicago Center
07:12PM 41.3708 -87.7267 171° South 359 413 18,100 1,920 Climbing Chicago Center
07:13PM 41.2714 -87.7058 171° South 377 434 20,000 1,920 Climbing Chicago Center
07:14PM 41.1581 -87.6808 171° South 402 463 22,100 2,040 Climbing Chicago Center
07:15PM 41.0419 -87.6558 171° South 417 480 24,200 2,040 Climbing Chicago Center
07:16PM 40.8994 -87.6247 171° South 430 495 26,300 1,680 Climbing Chicago Center
07:17PM 40.7764 -87.5986 171° South 444 511 27,700 1,320 Climbing Chicago Center
07:18PM 40.6511 -87.5719 171° South 454 522 29,100 1,140 Climbing Chicago Center
07:19PM 40.5211 -87.5439 171° South 470 541 30,100 1,200 Climbing Chicago Center
07:20PM 40.3881 -87.5156 171° South 480 552 31,600 1,380 Climbing Chicago Center
07:21PM 40.2572 -87.4881 171° South 479 551 33,000 660 Climbing Chicago Center
07:22PM 40.1206 -87.4608 171° South 474 545 33,000  Level Chicago Center
07:23PM 40.0406 -87.4453 172° South 474 545 33,000  Level Indianapolis Center
07:24PM 39.9114 -87.4200 171° South 474 545 33,000 300 Level Indianapolis Center
07:25PM 39.7814 -87.3936 171° South 473 544 33,700 900 Climbing Indianapolis Center
07:26PM 39.6533 -87.3672 171° South 472 543 34,900 1,020 Climbing Indianapolis Center
07:27PM 39.5253 -87.3411 171° South 472 543 35,800 720 Climbing Indianapolis Center
07:28PM 39.3953 -87.3147 171° South 472 543 36,400 540 Climbing Indianapolis Center
07:29PM 39.2614 -87.2875 171° South 480 552 37,000 240 Climbing Indianapolis Center
07:30PM 39.1281 -87.2592 171° South 483 556 37,000  Level Indianapolis Center
07:31PM 38.9922 -87.2331 172° South 483 556 37,000  Level Indianapolis Center
07:32PM 38.8592 -87.2075 171° South 483 556 37,000  Level Indianapolis Center
07:33PM 38.7269 -87.1808 171° South 481 554 37,000  Level Indianapolis Center
07:34PM 38.5953 -87.1544 171° South 481 554 37,000  Level Indianapolis Center
07:35PM 38.4372 -87.1233 171° South 480 552 37,000  Level Indianapolis Center
07:36PM 38.3150 -87.0992 171° South 480 552 37,000  Level Indianapolis Center
07:37PM 38.1831 -87.0739 171° South 480 552 37,000  Level Indianapolis Center
07:38PM 38.0536 -87.0489 171° South 478 550 37,000  Level Indianapolis Center
07:39PM 37.9236 -87.0239 171° South 475 547 37,000  Level Indianapolis Center
07:40PM 37.7936 -86.9983 171° South 474 545 37,000  Level Indianapolis Center
07:41PM 37.6650 -86.9731 171° South 471 542 37,000  Level Indianapolis Center
07:42PM 37.5136 -86.9439 171° South 469 540 37,000  Level Indianapolis Center
07:43PM 37.3842 -86.9192 171° South 468 539 37,000  Level Indianapolis Center
07:44PM 37.2511 -86.8942 171° South 471 542 37,000  Level Indianapolis Center
07:45PM 37.1178 -86.8625 169° South 476 548 37,000  Level Indianapolis Center
07:46PM 36.9853 -86.8047 161° South 492 566 37,000  Level Indianapolis Center
07:47PM 36.8747 -86.7589 162° South 496 571 37,000  Level Memphis Center
07:48PM 36.7400 -86.7033 162° South 498 573 37,000  Level Memphis Center
07:49PM 36.6064 -86.6489 162° South 498 573 37,000  Level Memphis Center
07:50PM 36.4711 -86.5931 162° South 498 573 37,000  Level Memphis Center
07:51PM 36.3342 -86.5375 162° South 500 575 37,000  Level Memphis Center
07:52PM 36.1989 -86.4847 163° South 501 577 37,000  Level Memphis Center
07:53PM 36.0647 -86.4328 163° South 500 575 37,000  Level Memphis Center
07:54PM 35.9325 -86.3792 162° South 498 573 37,000  Level Memphis Center
07:55PM 35.8006 -86.3275 162° South 496 571 37,000  Level Memphis Center
07:56PM 35.6697 -86.2747 162° South 493 567 37,000  Level Memphis Center
07:57PM 35.5389 -86.2236 162° South 490 564 37,000  Level Memphis Center
07:58PM 35.3994 -86.1692 162° South 483 556 37,000  Level Memphis Center
07:59PM 35.2714 -86.1186 162° South 483 556 37,000  Level Memphis Center
08:00PM 35.1431 -86.0686 162° South 483 556 37,000  Level Memphis Center
08:01PM 35.0144 -86.0172 162° South 484 557 37,000  Level Memphis Center
08:02PM 34.8856 -85.9672 162° South 484 557 37,000  Level Memphis Center
08:03PM 34.7297 -85.9039 162° South 477 549 37,000  Level Atlanta Center
08:04PM 34.6011 -85.8531 162° South 482 555 37,000  Level Atlanta Center
08:05PM 34.4703 -85.8075 164° South 482 555 37,000  Level Atlanta Center
08:06PM 34.3417 -85.7597 163° South 482 555 37,000  Level Atlanta Center
08:07PM 34.2150 -85.7119 163° South 482 555 37,000  Level Atlanta Center
08:08PM 34.0819 -85.6617 163° South 482 555 37,000  Level Atlanta Center
08:09PM 33.9553 -85.6142 163° South 482 555 37,000  Level Atlanta Center
08:10PM 33.8286 -85.5642 162° South 482 555 37,000  Level Atlanta Center
08:11PM 33.6978 -85.5144 162° South 482 555 37,000  Level Atlanta Center
08:12PM 33.5731 -85.4700 163° South 482 555 37,000  Level Atlanta Center
08:13PM 33.4422 -85.4206 162° South 482 555 37,000  Level Atlanta Center
08:14PM 33.3153 -85.3761 164° South 477 549 37,000  Level Atlanta Center
08:15PM 33.1864 -85.3294 163° South 483 556 37,000  Level Atlanta Center
08:16PM 33.0678 -85.2856 163° South 483 556 37,000  Level Atlanta Center
08:17PM 32.9328 -85.2244 159° South 483 556 37,000  Level Atlanta Center
08:18PM 32.7997 -85.1756 163° South 483 556 37,000  Level Atlanta Center
08:19PM 32.6769 -85.1319 163° South 475 547 37,000  Level Atlanta Center
08:20PM 32.5436 -85.0811 162° South 480 552 37,000  Level Atlanta Center
08:21PM 32.4189 -85.0378 164° South 480 552 37,000  Level Atlanta Center
08:22PM 32.2897 -84.9922 163° South 480 552 37,000  Level Atlanta Center
08:23PM 32.1628 -84.9492 164° South 480 552 37,000  Level Atlanta Center
08:25PM 31.9008 -84.8503 162° South 491 565 37,000  Level Jacksonville Center
08:26PM 31.7867 -84.8111 164° South 484 557 37,000  Level Jacksonville Center
08:27PM 31.6600 -84.7669 163° South 484 557 37,000  Level Jacksonville Center
08:28PM 31.5311 -84.7206 163° South 474 545 37,000  Level Jacksonville Center
08:29PM 31.4067 -84.6719 162° South 474 545 37,000  Level Jacksonville Center
08:30PM 31.2822 -84.6064 156° South 479 551 37,000  Level Jacksonville Center
08:31PM 31.1600 -84.5433 156° South 490 564 37,000  Level Jacksonville Center
08:32PM 31.0333 -84.4806 157° South 495 570 37,000  Level Jacksonville Center
08:33PM 30.9089 -84.4156 156° South 495 570 37,000  Level Jacksonville Center
08:34PM 30.7844 -84.3508 156° South 495 570 37,000  Level Jacksonville Center
08:35PM 30.6578 -84.2883 157° South 495 570 37,000  Level Jacksonville Center
08:36PM 30.5206 -84.2189 156° South 495 570 37,000 -60 Level Jacksonville Center
08:37PM 30.4106 -84.1644 157° South 495 570 36,900  Descending Jacksonville Center
08:38PM 30.2878 -84.1025 156° South 490 564 37,000  Climbing Jacksonville Center
08:39PM 30.1611 -84.0386 156° South 495 570 37,000  Level Jacksonville Center
08:40PM 30.0344 -83.9747 156° South 495 570 37,000  Level Jacksonville Center
08:41PM 29.9075 -83.9108 156° South 495 570 37,000  Level Jacksonville Center
08:42PM 29.7806 -83.8497 157° South 495 570 37,000  Level Jacksonville Center
08:43PM 29.6558 -83.7864 156° South 495 570 37,000  Level Jacksonville Center
08:44PM 29.5289 -83.7256 157° South 495 570 37,000  Level Jacksonville Center
08:45PM 29.4019 -83.6650 157° South 495 570 37,000  Level Jacksonville Center
08:46PM 29.2750 -83.6019 157° South 495 570 37,000  Level Jacksonville Center
08:47PM 29.1481 -83.5392 157° South 495 570 37,000  Level Jacksonville Center
08:48PM 29.0231 -83.4792 157° South 495 570 37,000  Level Jacksonville Center
08:49PM 28.8981 -83.4167 156° South 495 570 37,000  Level Jacksonville Center
08:50PM 28.7586 -83.3472 156° South 501 577 37,000 -240 Level Jacksonville Center
08:51PM 28.6336 -83.2853 156° South 494 568 36,600 -1,560 Descending Jacksonville Center
08:54PM 28.3706 -83.1644 158° South 468 539 31,900 -2,100 Descending Miami Center
08:55PM 28.2522 -83.1058 156° South 468 539 29,900 -2,040 Descending Miami Center
08:56PM 28.1339 -83.0475 157° South 461 531 27,900 -1,500 Descending Miami Center
08:57PM 28.0236 -82.9944 157° South 456 525 27,000 -480 Descending Miami Center
08:58PM 27.9067 -82.9436 159° South 451 519 27,000  Level Miami Center
08:59PM 27.7869 -82.8692 151° Southeast 461 531 27,000  Level Miami Center
09:00PM 27.6811 -82.8028 151° Southeast 461 531 27,000 -720 Level Miami Center
09:01PM 27.5669 -82.7358 153° Southeast 461 531 25,600 -1,920 Descending Miami Center
09:02PM 27.4469 -82.6644 152° Southeast 452 520 23,200 -2,280 Descending Miami Center
09:03PM 27.3408 -82.6028 153° Southeast 443 510 21,100 -1,980 Descending Miami Center
09:04PM 27.2450 -82.5467 152° Southeast 432 497 19,300 -2,040 Descending Miami Center
09:05PM 27.1328 -82.4831 153° Southeast 420 483 17,100 -2,220 Descending Miami Center
09:06PM 27.0328 -82.4222 152° Southeast 420 483 14,900 -2,100 Descending Miami Center
09:07PM 26.9431 -82.3689 152° Southeast 403 464 13,000 -1,860 Descending Miami Center
09:08PM 26.8489 -82.3156 153° Southeast 397 457 11,200 -1,380 Descending Miami Center
09:09PM 26.7636 -82.2583 149° Southeast 374 430 10,300 -960 Descending Miami Center
09:10PM 26.6906 -82.2014 145° Southeast 337 388 9,300 -1,380 Descending Miami Center
09:11PM 26.6217 -82.1450 144° Southeast 319 367 7,600 -1,500 Descending Miami Center
09:12PM 26.5544 -82.0931 145° Southeast 302 348 6,300 -1,440 Descending Miami Center
09:13PM 26.4833 -82.0436 148° Southeast 282 325 4,800 -960 Descending Miami Center
09:14PM 26.4189 -82.0339 172° South 245 282 4,400 -480 Descending Miami Center
09:15PM 26.4019 -81.9844 111° Southeast 166 191 3,900 -720 Descending Miami Center
09:16PM 26.4181 -81.9364 69° East 149 171 3,000 -900 Descending Miami Center
09:18PM 26.5333 -81.7500 50° Northeast  Level FlightAware Approximate
09:25PM 26.5362 -81.7552 50° Northeast  Level Estimated
09:26PM 26.5333 -81.7500 50° Northeast  Level FlightAware Approximate
09:27PM 26.5362 -81.7552 50° Northeast  Level Estimated
09:28PM 26.5333 -81.7500 50° Northeast  Level FlightAware Approximate